sensor_id;sensor_type;location;lat;lon;timestamp;pressure;altitude;pressure_sealevel;temperature;humidity
22580;BME280;11456;47.030;15.396;2023-08-06T00:00:54;96406.06;;;16.82;100.00
22580;BME280;11456;47.030;15.396;2023-08-06T00:03:21;96405.69;;;16.72;100.00
22580;BME280;11456;47.030;15.396;2023-08-06T00:05:48;96407.38;;;16.73;100.00
22580;BME280;11456;47.030;15.396;2023-08-06T00:08:15;96402.38;;;16.70;100.00
22580;BME280;11456;47.030;15.396;2023-08-06T00:10:41;96404.84;;;16.72;100.00
22580;BME280;11456;47.030;15.396;2023-08-06T00:13:08;96405.69;;;16.72;100.00
22580;BME280;11456;47.030;15.396;2023-08-06T00:15:35;96405.31;;;16.69;100.00
22580;BME280;11456;47.030;15.396;2023-08-06T00:18:02;96404.91;;;16.65;100.00
22580;BME280;11456;47.030;15.396;2023-08-06T00:20:28;96412.47;;;16.63;100.00
22580;BME280;11456;47.030;15.396;2023-08-06T00:22:55;96415.19;;;16.63;100.00
22580;BME280;11456;47.030;15.396;2023-08-06T00:25:22;96418.84;;;16.75;100.00
22580;BME280;11456;47.030;15.396;2023-08-06T00:27:48;96418.09;;;16.93;100.00
22580;BME280;11456;47.030;15.396;2023-08-06T00:30:15;96422.78;;;16.79;100.00
22580;BME280;11456;47.030;15.396;2023-08-06T00:32:43;96410.50;;;16.77;100.00
22580;BME280;11456;47.030;15.396;2023-08-06T00:35:09;96413.69;;;16.67;100.00
22580;BME280;11456;47.030;15.396;2023-08-06T00:37:36;96410.75;;;16.69;100.00
22580;BME280;11456;47.030;15.396;2023-08-06T00:40:03;96416.19;;;16.69;100.00
22580;BME280;11456;47.030;15.396;2023-08-06T00:42:30;96415.97;;;16.70;100.00
22580;BME280;11456;47.030;15.396;2023-08-06T00:44:56;96416.25;;;16.62;100.00
22580;BME280;11456;47.030;15.396;2023-08-06T00:47:24;96413.69;;;16.67;100.00
22580;BME280;11456;47.030;15.396;2023-08-06T00:49:51;96411.19;;;16.59;100.00
22580;BME280;11456;47.030;15.396;2023-08-06T00:52:18;96408.31;;;16.54;100.00
22580;BME280;11456;47.030;15.396;2023-08-06T00:54:44;96405.59;;;16.54;100.00
22580;BME280;11456;47.030;15.396;2023-08-06T00:57:11;96402.88;;;16.54;100.00
22580;BME280;11456;47.030;15.396;2023-08-06T00:59:38;96406.41;;;16.61;100.00
22580;BME280;11456;47.030;15.396;2023-08-06T01:02:05;96401.75;;;16.68;100.00
22580;BME280;11456;47.030;15.396;2023-08-06T01:04:32;96398.59;;;16.71;100.00
22580;BME280;11456;47.030;15.396;2023-08-06T01:07:13;96392.72;;;16.74;100.00
22580;BME280;11456;47.030;15.396;2023-08-06T01:15:23;96373.69;;;16.99;100.00
22580;BME280;11456;47.030;15.396;2023-08-06T01:17:51;96368.59;;;17.03;100.00
22580;BME280;11456;47.030;15.396;2023-08-06T01:20:19;96370.47;;;17.27;100.00
22580;BME280;11456;47.030;15.396;2023-08-06T01:22:45;96367.50;;;17.29;100.00
22580;BME280;11456;47.030;15.396;2023-08-06T01:25:15;96361.56;;;17.38;100.00
22580;BME280;11456;47.030;15.396;2023-08-06T01:30:15;96358.22;;;17.36;100.00
22580;BME280;11456;47.030;15.396;2023-08-06T01:32:44;96367.88;;;16.96;100.00
22580;BME280;11456;47.030;15.396;2023-08-06T01:35:15;96364.81;;;16.86;100.00
22580;BME280;11456;47.030;15.396;2023-08-06T01:37:43;96360.97;;;16.93;100.00
22580;BME280;11456;47.030;15.396;2023-08-06T01:40:11;96356.69;;;17.04;100.00
22580;BME280;11456;47.030;15.396;2023-08-06T01:42:39;96365.63;;;17.29;100.00
22580;BME280;11456;47.030;15.396;2023-08-06T01:45:08;96366.41;;;16.93;100.00
22580;BME280;11456;47.030;15.396;2023-08-06T01:47:35;96366.97;;;17.02;100.00
22580;BME280;11456;47.030;15.396;2023-08-06T01:50:02;96368.75;;;16.90;100.00
22580;BME280;11456;47.030;15.396;2023-08-06T01:52:29;96362.88;;;16.68;100.00
22580;BME280;11456;47.030;15.396;2023-08-06T01:54:56;96364.16;;;16.59;100.00
22580;BME280;11456;47.030;15.396;2023-08-06T01:57:23;96354.31;;;16.64;100.00
22580;BME280;11456;47.030;15.396;2023-08-06T01:59:50;96346.28;;;16.76;100.00
22580;BME280;11456;47.030;15.396;2023-08-06T02:02:17;96352.28;;;16.60;100.00
22580;BME280;11456;47.030;15.396;2023-08-06T02:04:43;96344.88;;;16.92;100.00
22580;BME280;11456;47.030;15.396;2023-08-06T02:07:11;96349.75;;;17.08;100.00
22580;BME280;11456;47.030;15.396;2023-08-06T02:09:38;96339.25;;;17.11;100.00
22580;BME280;11456;47.030;15.396;2023-08-06T02:12:05;96347.22;;;16.88;100.00
22580;BME280;11456;47.030;15.396;2023-08-06T02:14:32;96338.72;;;17.21;100.00
22580;BME280;11456;47.030;15.396;2023-08-06T02:16:59;96334.19;;;17.15;100.00
22580;BME280;11456;47.030;15.396;2023-08-06T02:19:25;96329.31;;;16.99;100.00
22580;BME280;11456;47.030;15.396;2023-08-06T02:21:52;96333.09;;;16.98;100.00
22580;BME280;11456;47.030;15.396;2023-08-06T02:24:21;96338.09;;;17.01;100.00
22580;BME280;11456;47.030;15.396;2023-08-06T02:26:47;96329.31;;;16.99;100.00
22580;BME280;11456;47.030;15.396;2023-08-06T02:29:18;96327.16;;;17.07;100.00
22580;BME280;11456;47.030;15.396;2023-08-06T02:31:44;96319.97;;;16.95;100.00
22580;BME280;11456;47.030;15.396;2023-08-06T02:34:11;96323.53;;;16.95;100.00
22580;BME280;11456;47.030;15.396;2023-08-06T02:36:37;96328.56;;;16.92;100.00
22580;BME280;11456;47.030;15.396;2023-08-06T02:39:05;96334.75;;;16.99;100.00
22580;BME280;11456;47.030;15.396;2023-08-06T02:41:32;96334.19;;;17.15;100.00
22580;BME280;11456;47.030;15.396;2023-08-06T02:43:59;96339.13;;;16.81;100.00
22580;BME280;11456;47.030;15.396;2023-08-06T02:46:26;96333.44;;;16.58;100.00
22580;BME280;11456;47.030;15.396;2023-08-06T02:48:53;96340.13;;;16.62;100.00
22580;BME280;11456;47.030;15.396;2023-08-06T02:51:20;96340.44;;;16.72;100.00
22580;BME280;11456;47.030;15.396;2023-08-06T02:53:48;96337.41;;;16.62;100.00
22580;BME280;11456;47.030;15.396;2023-08-06T02:56:17;96341.00;;;16.81;100.00
22580;BME280;11456;47.030;15.396;2023-08-06T02:58:53;96338.22;;;16.88;100.00
22580;BME280;11456;47.030;15.396;2023-08-06T03:01:30;96341.38;;;17.46;100.00
22580;BME280;11456;47.030;15.396;2023-08-06T03:04:04;96335.53;;;17.24;100.00
22580;BME280;11456;47.030;15.396;2023-08-06T03:06:36;96335.75;;;17.04;100.00
22580;BME280;11456;47.030;15.396;2023-08-06T03:09:03;96339.13;;;16.81;100.00
22580;BME280;11456;47.030;15.396;2023-08-06T03:11:30;96332.69;;;16.76;100.00
22580;BME280;11456;47.030;15.396;2023-08-06T03:14:02;96329.47;;;16.86;100.00
22580;BME280;11456;47.030;15.396;2023-08-06T03:16:29;96337.88;;;16.77;100.00
22580;BME280;11456;47.030;15.396;2023-08-06T03:18:59;96336.53;;;16.68;100.00
22580;BME280;11456;47.030;15.396;2023-08-06T03:21:27;96341.28;;;16.73;100.00
22580;BME280;11456;47.030;15.396;2023-08-06T03:23:54;96333.34;;;16.71;100.00
22580;BME280;11456;47.030;15.396;2023-08-06T03:26:25;96329.09;;;16.82;100.00
22580;BME280;11456;47.030;15.396;2023-08-06T03:28:51;96329.31;;;16.99;100.00
22580;BME280;11456;47.030;15.396;2023-08-06T03:31:18;96323.53;;;16.95;100.00
22580;BME280;11456;47.030;15.396;2023-08-06T03:33:45;96336.06;;;16.96;100.00
22580;BME280;11456;47.030;15.396;2023-08-06T03:36:15;96328.63;;;16.85;100.00
22580;BME280;11456;47.030;15.396;2023-08-06T03:38:42;96336.19;;;16.83;100.00
22580;BME280;11456;47.030;15.396;2023-08-06T03:41:11;96326.72;;;16.86;100.00
22580;BME280;11456;47.030;15.396;2023-08-06T03:43:38;96330.75;;;16.83;100.00
22580;BME280;11456;47.030;15.396;2023-08-06T03:46:10;96332.06;;;16.74;100.00
22580;BME280;11456;47.030;15.396;2023-08-06T03:48:36;96333.66;;;16.63;100.00
22580;BME280;11456;47.030;15.396;2023-08-06T03:51:03;96318.28;;;16.75;100.00
22580;BME280;11456;47.030;15.396;2023-08-06T03:53:30;96324.75;;;16.74;100.00
22580;BME280;11456;47.030;15.396;2023-08-06T03:55:57;96316.25;;;16.64;100.00
22580;BME280;11456;47.030;15.396;2023-08-06T03:58:27;96322.22;;;16.48;100.00
22580;BME280;11456;47.030;15.396;2023-08-06T04:01:01;96324.69;;;16.56;100.00
22580;BME280;11456;47.030;15.396;2023-08-06T04:03:41;96319.75;;;16.71;100.00
22580;BME280;11456;47.030;15.396;2023-08-06T04:06:08;96314.69;;;16.50;100.00
22580;BME280;11456;47.030;15.396;2023-08-06T04:08:35;96317.94;;;16.59;100.00
22580;BME280;11456;47.030;15.396;2023-08-06T04:11:02;96313.25;;;16.72;100.00
22580;BME280;11456;47.030;15.396;2023-08-06T04:13:30;96314.94;;;16.73;100.00
22580;BME280;11456;47.030;15.396;2023-08-06T04:16:03;96319.41;;;16.36;100.00
22580;BME280;11456;47.030;15.396;2023-08-06T04:18:31;96312.97;;;16.56;100.00
22580;BME280;11456;47.030;15.396;2023-08-06T04:20:58;96313.41;;;16.77;100.00
22580;BME280;11456;47.030;15.396;2023-08-06T04:23:24;96315.06;;;16.60;100.00
22580;BME280;11456;47.030;15.396;2023-08-06T04:25:58;96305.03;;;16.54;100.00
22580;BME280;11456;47.030;15.396;2023-08-06T04:28:29;96313.19;;;16.79;100.00
22580;BME280;11456;47.030;15.396;2023-08-06T04:30:56;96311.94;;;16.81;100.00
22580;BME280;11456;47.030;15.396;2023-08-06T04:33:23;96314.63;;;16.63;100.00
22580;BME280;11456;47.030;15.396;2023-08-06T04:35:54;96315.06;;;16.54;100.00
22580;BME280;11456;47.030;15.396;2023-08-06T04:38:23;96315.47;;;16.57;100.00
22580;BME280;11456;47.030;15.396;2023-08-06T04:40:52;96317.13;;;16.58;100.00
22580;BME280;11456;47.030;15.396;2023-08-06T04:43:20;96314.63;;;16.63;100.00
22580;BME280;11456;47.030;15.396;2023-08-06T04:45:52;96317.38;;;16.81;100.00
22580;BME280;11456;47.030;15.396;2023-08-06T04:48:20;96330.94;;;16.63;100.00
22580;BME280;11456;47.030;15.396;2023-08-06T04:50:48;96341.22;;;16.79;100.00
22580;BME280;11456;47.030;15.396;2023-08-06T04:53:15;96348.63;;;16.91;100.00
22580;BME280;11456;47.030;15.396;2023-08-06T04:55:42;96345.22;;;17.02;100.00
22580;BME280;11456;47.030;15.396;2023-08-06T04:58:10;96359.63;;;16.77;100.00
22580;BME280;11456;47.030;15.396;2023-08-06T05:00:37;96365.00;;;16.59;100.00
22580;BME280;11456;47.030;15.396;2023-08-06T05:03:05;96370.34;;;16.72;100.00
22580;BME280;11456;47.030;15.396;2023-08-06T05:05:31;96372.63;;;16.75;100.00
22580;BME280;11456;47.030;15.396;2023-08-06T05:07:58;96372.25;;;16.72;100.00
22580;BME280;11456;47.030;15.396;2023-08-06T05:10:25;96385.06;;;16.90;100.00
22580;BME280;11456;47.030;15.396;2023-08-06T05:12:53;96386.28;;;16.94;100.00
22580;BME280;11456;47.030;15.396;2023-08-06T05:15:20;96381.16;;;16.79;100.00
22580;BME280;11456;47.030;15.396;2023-08-06T05:17:46;96387.78;;;16.58;100.00
22580;BME280;11456;47.030;15.396;2023-08-06T05:20:13;96387.38;;;16.61;100.00
22580;BME280;11456;47.030;15.396;2023-08-06T05:22:40;96393.16;;;16.71;100.00
22580;BME280;11456;47.030;15.396;2023-08-06T05:25:07;96391.69;;;16.75;100.00
22580;BME280;11456;47.030;15.396;2023-08-06T05:27:34;96390.72;;;16.63;100.00
22580;BME280;11456;47.030;15.396;2023-08-06T05:30:00;96391.69;;;16.75;100.00
22580;BME280;11456;47.030;15.396;2023-08-06T05:32:27;96389.06;;;16.62;100.00
22580;BME280;11456;47.030;15.396;2023-08-06T05:34:54;96400.63;;;16.82;100.00
22580;BME280;11456;47.030;15.396;2023-08-06T05:37:21;96392.34;;;16.96;100.00
22580;BME280;11456;47.030;15.396;2023-08-06T05:39:47;96396.31;;;16.93;100.00
22580;BME280;11456;47.030;15.396;2023-08-06T05:42:14;96390.22;;;17.41;100.00
22580;BME280;11456;47.030;15.396;2023-08-06T05:44:41;96390.81;;;17.00;100.00
22580;BME280;11456;47.030;15.396;2023-08-06T05:47:07;96393.50;;;16.81;100.00
22580;BME280;11456;47.030;15.396;2023-08-06T05:49:34;96384.84;;;16.66;100.00
22580;BME280;11456;47.030;15.396;2023-08-06T05:52:00;96388.63;;;16.59;100.00
22580;BME280;11456;47.030;15.396;2023-08-06T05:54:29;96385.72;;;16.60;100.00
22580;BME280;11456;47.030;15.396;2023-08-06T05:56:56;96389.50;;;16.53;100.00
22580;BME280;11456;47.030;15.396;2023-08-06T05:59:22;96381.28;;;16.59;100.00
22580;BME280;11456;47.030;15.396;2023-08-06T06:01:49;96391.31;;;16.65;100.00
22580;BME280;11456;47.030;15.396;2023-08-06T06:04:16;96385.19;;;16.76;100.00
22580;BME280;11456;47.030;15.396;2023-08-06T06:06:42;96386.06;;;16.70;100.00
22580;BME280;11456;47.030;15.396;2023-08-06T06:09:09;96385.72;;;16.60;100.00
22580;BME280;11456;47.030;15.396;2023-08-06T06:11:36;96393.44;;;16.63;100.00
22580;BME280;11456;47.030;15.396;2023-08-06T06:14:03;96389.06;;;16.62;100.00
22580;BME280;11456;47.030;15.396;2023-08-06T06:16:29;96395.06;;;16.96;100.00
22580;BME280;11456;47.030;15.396;2023-08-06T06:18:56;96392.03;;;17.04;100.00
22580;BME280;11456;47.030;15.396;2023-08-06T06:21:24;96399.41;;;17.21;100.00
22580;BME280;11456;47.030;15.396;2023-08-06T06:23:50;96396.94;;;17.38;100.00
22580;BME280;11456;47.030;15.396;2023-08-06T06:26:20;96397.47;;;17.47;100.00
22580;BME280;11456;47.030;15.396;2023-08-06T06:28:46;96402.84;;;17.53;100.00
22580;BME280;11456;47.030;15.396;2023-08-06T06:31:13;96399.25;;;17.78;100.00
22580;BME280;11456;47.030;15.396;2023-08-06T06:33:40;96399.84;;;17.98;100.00
22580;BME280;11456;47.030;15.396;2023-08-06T06:36:06;96400.41;;;18.00;100.00
22580;BME280;11456;47.030;15.396;2023-08-06T06:38:34;96402.09;;;17.46;100.00
22580;BME280;11456;47.030;15.396;2023-08-06T06:41:01;96403.78;;;17.84;100.00
22580;BME280;11456;47.030;15.396;2023-08-06T06:43:29;96399.81;;;17.80;100.00
22580;BME280;11456;47.030;15.396;2023-08-06T06:45:57;96406.03;;;18.05;100.00
22580;BME280;11456;47.030;15.396;2023-08-06T06:48:28;96399.75;;;18.05;100.00
22580;BME280;11456;47.030;15.396;2023-08-06T06:50:56;96405.06;;;17.81;100.00
22580;BME280;11456;47.030;15.396;2023-08-06T06:53:23;96401.81;;;17.73;100.00
22580;BME280;11456;47.030;15.396;2023-08-06T06:56:01;96415.03;;;17.87;100.00
22580;BME280;11456;47.030;15.396;2023-08-06T06:58:28;96411.97;;;18.14;100.00
22580;BME280;11456;47.030;15.396;2023-08-06T07:00:54;96404.94;;;18.06;100.00
22580;BME280;11456;47.030;15.396;2023-08-06T07:03:21;96409.59;;;17.87;100.00
22580;BME280;11456;47.030;15.396;2023-08-06T07:05:49;96400.38;;;17.70;100.00
22580;BME280;11456;47.030;15.396;2023-08-06T07:08:16;96403.63;;;17.79;100.00
22580;BME280;11456;47.030;15.396;2023-08-06T07:10:43;96407.50;;;17.71;100.00
22580;BME280;11456;47.030;15.396;2023-08-06T07:13:10;96409.06;;;17.97;100.00
22580;BME280;11456;47.030;15.396;2023-08-06T07:15:36;96407.69;;;17.88;100.00
22580;BME280;11456;47.030;15.396;2023-08-06T07:18:03;96398.03;;;17.92;100.00
22580;BME280;11456;47.030;15.396;2023-08-06T07:20:30;96394.06;;;18.66;100.00
22580;BME280;11456;47.030;15.396;2023-08-06T07:22:58;96392.50;;;18.70;100.00
22580;BME280;11456;47.030;15.396;2023-08-06T07:25:25;96387.66;;;18.60;100.00
22580;BME280;11456;47.030;15.396;2023-08-06T07:27:52;96393.81;;;17.78;100.00
22580;BME280;11456;47.030;15.396;2023-08-06T07:30:19;96390.47;;;17.76;100.00
22580;BME280;11456;47.030;15.396;2023-08-06T07:32:45;96385.25;;;18.22;100.00
22580;BME280;11456;47.030;15.396;2023-08-06T07:35:12;96390.16;;;17.84;100.00
22580;BME280;11456;47.030;15.396;2023-08-06T07:37:41;96387.72;;;17.94;100.00
22580;BME280;11456;47.030;15.396;2023-08-06T07:40:08;96383.31;;;17.93;100.00
22580;BME280;11456;47.030;15.396;2023-08-06T07:42:35;96380.16;;;17.96;100.00
22580;BME280;11456;47.030;15.396;2023-08-06T07:45:02;96381.81;;;17.97;100.00
22580;BME280;11456;47.030;15.396;2023-08-06T07:47:29;96389.81;;;18.10;100.00
22580;BME280;11456;47.030;15.396;2023-08-06T07:49:55;96385.13;;;18.17;100.00
22580;BME280;11456;47.030;15.396;2023-08-06T07:52:22;96378.50;;;17.95;100.00
22580;BME280;11456;47.030;15.396;2023-08-06T07:54:49;96383.41;;;18.05;100.00
22580;BME280;11456;47.030;15.396;2023-08-06T07:57:15;96381.66;;;18.10;100.00
22580;BME280;11456;47.030;15.396;2023-08-06T07:59:43;96381.31;;;18.18;100.00
22580;BME280;11456;47.030;15.396;2023-08-06T08:02:09;96380.25;;;18.19;100.00
22580;BME280;11456;47.030;15.396;2023-08-06T08:04:36;96377.06;;;18.22;100.00
22580;BME280;11456;47.030;15.396;2023-08-06T08:07:03;96377.22;;;18.27;100.00
22580;BME280;11456;47.030;15.396;2023-08-06T08:09:29;96374.47;;;18.27;100.00
22580;BME280;11456;47.030;15.396;2023-08-06T08:11:56;96374.78;;;18.19;100.00
22580;BME280;11456;47.030;15.396;2023-08-06T08:14:26;96382.63;;;18.16;100.00
22580;BME280;11456;47.030;15.396;2023-08-06T08:16:53;96374.25;;;18.29;100.00
22580;BME280;11456;47.030;15.396;2023-08-06T08:19:19;96373.22;;;18.83;100.00
22580;BME280;11456;47.030;15.396;2023-08-06T08:21:47;96376.03;;;18.76;100.00
22580;BME280;11456;47.030;15.396;2023-08-06T08:24:14;96375.25;;;18.99;100.00
22580;BME280;11456;47.030;15.396;2023-08-06T08:26:40;96373.34;;;18.47;100.00
22580;BME280;11456;47.030;15.396;2023-08-06T08:29:07;96377.75;;;18.48;100.00
22580;BME280;11456;47.030;15.396;2023-08-06T08:31:34;96382.53;;;18.64;100.00
22580;BME280;11456;47.030;15.396;2023-08-06T08:34:05;96380.09;;;18.74;100.00
22580;BME280;11456;47.030;15.396;2023-08-06T08:36:32;96384.88;;;18.49;100.00
22580;BME280;11456;47.030;15.396;2023-08-06T08:38:59;96391.69;;;18.39;100.00
22580;BME280;11456;47.030;15.396;2023-08-06T08:41:28;96382.47;;;18.40;100.00
22580;BME280;11456;47.030;15.396;2023-08-06T08:43:58;96399.00;;;18.57;100.00
22580;BME280;11456;47.030;15.396;2023-08-06T08:46:26;96396.09;;;18.82;100.00
22580;BME280;11456;47.030;15.396;2023-08-06T08:48:54;96396.47;;;18.74;100.00
22580;BME280;11456;47.030;15.396;2023-08-06T08:51:23;96402.88;;;18.91;100.00
22580;BME280;11456;47.030;15.396;2023-08-06T08:53:52;96396.72;;;18.96;100.00
22580;BME280;11456;47.030;15.396;2023-08-06T08:56:19;96398.69;;;18.77;100.00
22580;BME280;11456;47.030;15.396;2023-08-06T08:58:46;96402.69;;;18.63;100.00
22580;BME280;11456;47.030;15.396;2023-08-06T09:01:13;96402.28;;;18.89;100.00
22580;BME280;11456;47.030;15.396;2023-08-06T09:03:43;96396.59;;;19.02;100.00
22580;BME280;11456;47.030;15.396;2023-08-06T09:06:11;96402.09;;;19.26;100.00
22580;BME280;11456;47.030;15.396;2023-08-06T09:08:47;96400.75;;;18.81;100.00
22580;BME280;11456;47.030;15.396;2023-08-06T09:11:17;96409.03;;;18.75;100.00
22580;BME280;11456;47.030;15.396;2023-08-06T09:13:47;96406.31;;;18.87;100.00
22580;BME280;11456;47.030;15.396;2023-08-06T09:16:14;96405.94;;;18.83;100.00
22580;BME280;11456;47.030;15.396;2023-08-06T09:18:40;96404.28;;;18.82;100.00
22580;BME280;11456;47.030;15.396;2023-08-06T09:21:13;96416.19;;;19.11;100.00
22580;BME280;11456;47.030;15.396;2023-08-06T09:23:40;96415.06;;;18.77;100.00
22580;BME280;11456;47.030;15.396;2023-08-06T09:26:11;96413.81;;;19.03;100.00
22580;BME280;11456;47.030;15.396;2023-08-06T09:28:40;96414.53;;;19.33;100.00
22580;BME280;11456;47.030;15.396;2023-08-06T09:31:09;96413.84;;;19.61;100.00
22580;BME280;11456;47.030;15.396;2023-08-06T09:33:37;96418.25;;;19.62;100.00
22580;BME280;11456;47.030;15.396;2023-08-06T09:36:11;96424.31;;;19.64;100.00
22580;BME280;11456;47.030;15.396;2023-08-06T09:38:39;96416.56;;;19.61;100.00
22580;BME280;11456;47.030;15.396;2023-08-06T09:41:07;96431.03;;;19.85;100.00
22580;BME280;11456;47.030;15.396;2023-08-06T09:43:41;96423.66;;;19.85;100.00
22580;BME280;11456;47.030;15.396;2023-08-06T09:46:14;96427.63;;;20.18;100.00
22580;BME280;11456;47.030;15.396;2023-08-06T09:48:46;96424.88;;;20.18;100.00
22580;BME280;11456;47.030;15.396;2023-08-06T09:51:13;96434.41;;;19.52;100.00
22580;BME280;11456;47.030;15.396;2023-08-06T09:53:41;96431.75;;;19.34;100.00
22580;BME280;11456;47.030;15.396;2023-08-06T09:56:09;96428.22;;;19.68;100.00
22580;BME280;11456;47.030;15.396;2023-08-06T09:58:38;96431.66;;;19.64;100.00
22580;BME280;11456;47.030;15.396;2023-08-06T10:01:05;96424.44;;;19.57;100.00
22580;BME280;11456;47.030;15.396;2023-08-06T10:03:33;96429.63;;;19.82;100.00
22580;BME280;11456;47.030;15.396;2023-08-06T10:06:00;96429.28;;;20.19;100.00
22580;BME280;11456;47.030;15.396;2023-08-06T10:08:32;96431.38;;;20.68;100.00
22580;BME280;11456;47.030;15.396;2023-08-06T10:11:00;96429.88;;;21.39;100.00
22580;BME280;11456;47.030;15.396;2023-08-06T10:13:30;96436.84;;;21.47;100.00
22580;BME280;11456;47.030;15.396;2023-08-06T10:15:57;96438.81;;;22.28;100.00
22580;BME280;11456;47.030;15.396;2023-08-06T10:18:24;96428.13;;;22.54;100.00
22580;BME280;11456;47.030;15.396;2023-08-06T10:20:51;96436.16;;;22.33;100.00
22580;BME280;11456;47.030;15.396;2023-08-06T10:23:18;96434.97;;;22.73;100.00
22580;BME280;11456;47.030;15.396;2023-08-06T10:25:53;96438.06;;;23.08;95.76
22580;BME280;11456;47.030;15.396;2023-08-06T10:28:22;96443.94;;;23.49;93.31
22580;BME280;11456;47.030;15.396;2023-08-06T10:30:48;96443.94;;;23.49;88.74
22580;BME280;11456;47.030;15.396;2023-08-06T10:33:19;96439.91;;;23.30;93.22
22580;BME280;11456;47.030;15.396;2023-08-06T10:35:47;96442.06;;;24.02;88.58
22580;BME280;11456;47.030;15.396;2023-08-06T10:38:21;96445.19;;;23.68;89.44
22580;BME280;11456;47.030;15.396;2023-08-06T10:41:02;96440.53;;;24.21;82.67
22580;BME280;11456;47.030;15.396;2023-08-06T10:43:33;96439.44;;;25.04;77.59
22580;BME280;11456;47.030;15.396;2023-08-06T10:46:09;96436.44;;;25.16;75.48
22580;BME280;11456;47.030;15.396;2023-08-06T10:48:40;96447.69;;;24.22;74.35
22580;BME280;11456;47.030;15.396;2023-08-06T10:51:09;96450.38;;;24.74;76.33
22580;BME280;11456;47.030;15.396;2023-08-06T10:53:37;96444.16;;;25.24;74.26
22580;BME280;11456;47.030;15.396;2023-08-06T10:56:24;96438.56;;;24.84;74.12
22580;BME280;11456;47.030;15.396;2023-08-06T10:58:56;96440.84;;;25.52;69.33
22580;BME280;11456;47.030;15.396;2023-08-06T11:01:23;96444.16;;;25.29;70.48
22580;BME280;11456;47.030;15.396;2023-08-06T11:03:50;96445.25;;;25.23;75.65
22580;BME280;11456;47.030;15.396;2023-08-06T11:06:20;96443.41;;;24.46;69.48
22580;BME280;11456;47.030;15.396;2023-08-06T11:08:52;96438.03;;;24.87;73.02
22580;BME280;11456;47.030;15.396;2023-08-06T11:11:21;96438.34;;;26.71;61.40
22580;BME280;11456;47.030;15.396;2023-08-06T11:13:50;96431.97;;;26.11;70.68
22580;BME280;11456;47.030;15.396;2023-08-06T11:16:19;96440.59;;;25.79;70.76
22580;BME280;11456;47.030;15.396;2023-08-06T11:18:46;96444.97;;;25.95;64.48
22580;BME280;11456;47.030;15.396;2023-08-06T11:21:13;96452.66;;;26.88;67.54
22580;BME280;11456;47.030;15.396;2023-08-06T11:23:41;96451.38;;;25.66;64.67
22580;BME280;11456;47.030;15.396;2023-08-06T11:26:08;96445.09;;;26.50;59.65
22580;BME280;11456;47.030;15.396;2023-08-06T11:28:35;96453.38;;;26.45;53.61
22580;BME280;11456;47.030;15.396;2023-08-06T11:31:01;96440.28;;;25.55;57.73
22580;BME280;11456;47.030;15.396;2023-08-06T11:33:30;96446.78;;;26.41;56.00
22580;BME280;11456;47.030;15.396;2023-08-06T11:35:59;96437.03;;;27.12;51.36
22580;BME280;11456;47.030;15.396;2023-08-06T11:38:29;96428.53;;;26.50;64.74
22580;BME280;11456;47.030;15.396;2023-08-06T11:40:56;96434.19;;;27.62;52.83
22580;BME280;11456;47.030;15.396;2023-08-06T11:43:23;96432.41;;;27.03;49.06
22580;BME280;11456;47.030;15.396;2023-08-06T11:45:50;96431.56;;;27.02;51.70
22580;BME280;11456;47.030;15.396;2023-08-06T11:48:21;96433.84;;;29.11;51.22
22580;BME280;11456;47.030;15.396;2023-08-06T11:50:48;96424.84;;;29.19;50.63
22580;BME280;11456;47.030;15.396;2023-08-06T11:53:15;96423.34;;;29.78;46.59
22580;BME280;11456;47.030;15.396;2023-08-06T11:55:42;96430.25;;;28.92;50.16
22580;BME280;11456;47.030;15.396;2023-08-06T11:58:10;96428.59;;;29.79;46.09
22580;BME280;11456;47.030;15.396;2023-08-06T12:00:42;96428.31;;;28.68;49.50
22580;BME280;11456;47.030;15.396;2023-08-06T12:03:09;96431.56;;;27.07;46.66
22580;BME280;11456;47.030;15.396;2023-08-06T12:05:37;96426.38;;;26.31;46.40
22580;BME280;11456;47.030;15.396;2023-08-06T12:08:05;96432.03;;;25.81;55.18
22580;BME280;11456;47.030;15.396;2023-08-06T12:10:32;96434.78;;;25.05;53.78
22580;BME280;11456;47.030;15.396;2023-08-06T12:12:59;96425.06;;;26.09;54.84
22580;BME280;11456;47.030;15.396;2023-08-06T12:15:26;96426.25;;;25.01;53.50
22580;BME280;11456;47.030;15.396;2023-08-06T12:17:53;96428.59;;;26.94;52.20
22580;BME280;11456;47.030;15.396;2023-08-06T12:20:20;96436.66;;;26.11;48.55
22580;BME280;11456;47.030;15.396;2023-08-06T12:22:47;96435.31;;;27.22;48.12
22580;BME280;11456;47.030;15.396;2023-08-06T12:25:13;96431.59;;;26.43;51.26
22580;BME280;11456;47.030;15.396;2023-08-06T12:27:42;96432.47;;;26.23;50.89
22580;BME280;11456;47.030;15.396;2023-08-06T12:30:09;96444.72;;;25.77;53.92
22580;BME280;11456;47.030;15.396;2023-08-06T12:32:37;96448.03;;;25.84;51.87
22580;BME280;11456;47.030;15.396;2023-08-06T12:35:05;96448.69;;;24.06;53.52
22580;BME280;11456;47.030;15.396;2023-08-06T12:37:34;96456.84;;;23.90;53.04
22580;BME280;11456;47.030;15.396;2023-08-06T12:40:01;96453.88;;;23.97;52.68
22580;BME280;11456;47.030;15.396;2023-08-06T12:42:50;96452.19;;;24.38;56.65
22580;BME280;11456;47.030;15.396;2023-08-06T12:45:17;96452.66;;;24.92;55.14
22580;BME280;11456;47.030;15.396;2023-08-06T12:47:43;96463.31;;;24.73;57.83
22580;BME280;11456;47.030;15.396;2023-08-06T12:50:10;96460.03;;;24.87;52.19
22580;BME280;11456;47.030;15.396;2023-08-06T12:52:37;96461.47;;;24.99;51.55
22580;BME280;11456;47.030;15.396;2023-08-06T12:55:04;96455.78;;;25.72;47.92